sensor_id;sensor_type;location;lat;lon;timestamp;P1;durP1;ratioP1;P2;durP2;ratioP2
60999;SDS011;46879;45.658;11.814;2022-10-28T00:03:24;5.13;;;2.17;;
60999;SDS011;46879;45.658;11.814;2022-10-28T00:08:26;4.80;;;2.50;;
60999;SDS011;46879;45.658;11.814;2022-10-28T00:13:27;4.72;;;2.45;;
60999;SDS011;46879;45.658;11.814;2022-10-28T00:18:28;4.63;;;2.22;;
60999;SDS011;46879;45.658;11.814;2022-10-28T00:23:28;3.28;;;2.22;;
60999;SDS011;46879;45.658;11.814;2022-10-28T00:28:29;3.53;;;2.15;;
60999;SDS011;46879;45.658;11.814;2022-10-28T00:33:30;6.25;;;2.50;;
60999;SDS011;46879;45.658;11.814;2022-10-28T00:38:33;3.40;;;1.90;;
60999;SDS011;46879;45.658;11.814;2022-10-28T00:43:38;2.30;;;2.07;;
60999;SDS011;46879;45.658;11.814;2022-10-28T00:48:40;2.13;;;1.70;;
60999;SDS011;46879;45.658;11.814;2022-10-28T00:53:42;2.28;;;2.05;;
60999;SDS011;46879;45.658;11.814;2022-10-28T00:58:44;1.95;;;1.73;;
60999;SDS011;46879;45.658;11.814;2022-10-28T01:03:46;4.78;;;1.95;;
60999;SDS011;46879;45.658;11.814;2022-10-28T01:08:47;4.32;;;2.10;;
60999;SDS011;46879;45.658;11.814;2022-10-28T01:29:14;2.67;;;2.10;;
60999;SDS011;46879;45.658;11.814;2022-10-28T01:39:54;2.42;;;2.05;;
60999;SDS011;46879;45.658;11.814;2022-10-28T01:55:37;2.40;;;1.80;;
60999;SDS011;46879;45.658;11.814;2022-10-28T02:00:38;2.20;;;2.00;;
60999;SDS011;46879;45.658;11.814;2022-10-28T02:05:44;3.03;;;2.10;;
60999;SDS011;46879;45.658;11.814;2022-10-28T02:15:59;4.03;;;1.98;;
60999;SDS011;46879;45.658;11.814;2022-10-28T02:21:05;5.18;;;2.03;;
60999;SDS011;46879;45.658;11.814;2022-10-28T02:26:14;2.25;;;1.80;;
60999;SDS011;46879;45.658;11.814;2022-10-28T02:31:33;3.05;;;2.00;;
60999;SDS011;46879;45.658;11.814;2022-10-28T02:36:36;3.30;;;1.88;;
60999;SDS011;46879;45.658;11.814;2022-10-28T02:41:52;2.08;;;1.75;;
60999;SDS011;46879;45.658;11.814;2022-10-28T02:46:54;2.58;;;1.88;;
60999;SDS011;46879;45.658;11.814;2022-10-28T02:51:59;1.88;;;1.70;;
60999;SDS011;46879;45.658;11.814;2022-10-28T02:57:09;3.00;;;1.55;;
60999;SDS011;46879;45.658;11.814;2022-10-28T03:02:11;4.60;;;1.95;;
60999;SDS011;46879;45.658;11.814;2022-10-28T03:07:11;1.93;;;1.60;;
60999;SDS011;46879;45.658;11.814;2022-10-28T03:12:12;1.60;;;1.50;;
60999;SDS011;46879;45.658;11.814;2022-10-28T03:17:13;2.22;;;1.75;;
60999;SDS011;46879;45.658;11.814;2022-10-28T03:22:14;2.33;;;1.90;;
60999;SDS011;46879;45.658;11.814;2022-10-28T03:27:15;2.42;;;1.70;;
60999;SDS011;46879;45.658;11.814;2022-10-28T03:32:15;3.30;;;2.13;;
60999;SDS011;46879;45.658;11.814;2022-10-28T03:37:16;2.47;;;1.60;;
60999;SDS011;46879;45.658;11.814;2022-10-28T03:42:17;3.67;;;1.90;;
60999;SDS011;46879;45.658;11.814;2022-10-28T03:47:17;1.67;;;1.57;;
60999;SDS011;46879;45.658;11.814;2022-10-28T03:52:18;4.57;;;1.73;;
60999;SDS011;46879;45.658;11.814;2022-10-28T03:57:18;1.73;;;1.63;;
60999;SDS011;46879;45.658;11.814;2022-10-28T04:02:19;1.90;;;1.58;;
60999;SDS011;46879;45.658;11.814;2022-10-28T04:07:20;1.65;;;1.55;;
60999;SDS011;46879;45.658;11.814;2022-10-28T04:12:21;3.17;;;2.00;;
60999;SDS011;46879;45.658;11.814;2022-10-28T04:17:22;2.22;;;1.60;;
60999;SDS011;46879;45.658;11.814;2022-10-28T04:22:23;2.03;;;1.63;;
60999;SDS011;46879;45.658;11.814;2022-10-28T04:27:24;1.58;;;1.48;;
60999;SDS011;46879;45.658;11.814;2022-10-28T04:32:24;1.75;;;1.58;;
60999;SDS011;46879;45.658;11.814;2022-10-28T04:37:25;2.10;;;1.70;;
60999;SDS011;46879;45.658;11.814;2022-10-28T04:42:26;2.45;;;1.60;;
60999;SDS011;46879;45.658;11.814;2022-10-28T04:47:28;2.25;;;1.45;;
60999;SDS011;46879;45.658;11.814;2022-10-28T04:52:28;1.67;;;1.53;;
60999;SDS011;46879;45.658;11.814;2022-10-28T04:57:29;3.05;;;1.63;;
60999;SDS011;46879;45.658;11.814;2022-10-28T05:02:31;2.50;;;1.80;;
60999;SDS011;46879;45.658;11.814;2022-10-28T05:07:31;1.58;;;1.48;;
60999;SDS011;46879;45.658;11.814;2022-10-28T05:12:32;1.40;;;1.30;;
60999;SDS011;46879;45.658;11.814;2022-10-28T05:17:32;1.95;;;1.60;;
60999;SDS011;46879;45.658;11.814;2022-10-28T05:22:33;2.00;;;1.90;;
60999;SDS011;46879;45.658;11.814;2022-10-28T05:27:33;4.22;;;1.92;;
60999;SDS011;46879;45.658;11.814;2022-10-28T05:32:33;2.70;;;1.80;;
60999;SDS011;46879;45.658;11.814;2022-10-28T05:37:33;3.75;;;1.92;;
60999;SDS011;46879;45.658;11.814;2022-10-28T05:42:39;1.95;;;1.65;;
60999;SDS011;46879;45.658;11.814;2022-10-28T05:47:42;5.80;;;2.08;;
60999;SDS011;46879;45.658;11.814;2022-10-28T05:52:52;2.03;;;1.75;;
60999;SDS011;46879;45.658;11.814;2022-10-28T05:57:53;2.65;;;2.20;;
60999;SDS011;46879;45.658;11.814;2022-10-28T06:03:03;6.50;;;2.47;;
60999;SDS011;46879;45.658;11.814;2022-10-28T06:08:09;8.77;;;2.28;;
60999;SDS011;46879;45.658;11.814;2022-10-28T06:13:09;8.32;;;2.35;;
60999;SDS011;46879;45.658;11.814;2022-10-28T06:18:09;5.95;;;2.40;;
60999;SDS011;46879;45.658;11.814;2022-10-28T06:23:09;3.42;;;2.17;;
60999;SDS011;46879;45.658;11.814;2022-10-28T06:28:10;4.32;;;2.38;;
60999;SDS011;46879;45.658;11.814;2022-10-28T06:33:10;4.47;;;2.30;;
60999;SDS011;46879;45.658;11.814;2022-10-28T06:38:10;9.07;;;2.60;;
60999;SDS011;46879;45.658;11.814;2022-10-28T06:43:11;9.15;;;2.50;;
60999;SDS011;46879;45.658;11.814;2022-10-28T06:48:13;5.43;;;2.28;;
60999;SDS011;46879;45.658;11.814;2022-10-28T06:53:13;11.45;;;2.97;;
60999;SDS011;46879;45.658;11.814;2022-10-28T06:58:13;5.78;;;2.47;;
60999;SDS011;46879;45.658;11.814;2022-10-28T07:03:14;5.22;;;2.38;;
60999;SDS011;46879;45.658;11.814;2022-10-28T07:08:14;9.02;;;2.40;;
60999;SDS011;46879;45.658;11.814;2022-10-28T07:13:15;7.40;;;2.63;;
60999;SDS011;46879;45.658;11.814;2022-10-28T07:18:16;7.70;;;2.90;;
60999;SDS011;46879;45.658;11.814;2022-10-28T07:23:16;3.97;;;2.30;;
60999;SDS011;46879;45.658;11.814;2022-10-28T07:28:16;9.02;;;2.47;;
60999;SDS011;46879;45.658;11.814;2022-10-28T07:33:17;4.80;;;2.10;;
60999;SDS011;46879;45.658;11.814;2022-10-28T07:38:17;3.40;;;2.63;;
60999;SDS011;46879;45.658;11.814;2022-10-28T07:43:17;5.15;;;2.70;;
60999;SDS011;46879;45.658;11.814;2022-10-28T07:48:17;4.10;;;2.35;;
60999;SDS011;46879;45.658;11.814;2022-10-28T07:53:18;5.95;;;2.28;;
60999;SDS011;46879;45.658;11.814;2022-10-28T07:58:18;2.97;;;2.15;;
60999;SDS011;46879;45.658;11.814;2022-10-28T08:03:18;3.40;;;2.10;;
60999;SDS011;46879;45.658;11.814;2022-10-28T08:08:19;6.45;;;2.20;;
60999;SDS011;46879;45.658;11.814;2022-10-28T08:13:19;5.00;;;2.40;;
60999;SDS011;46879;45.658;11.814;2022-10-28T08:18:20;5.97;;;1.98;;
60999;SDS011;46879;45.658;11.814;2022-10-28T08:23:20;5.28;;;2.17;;
60999;SDS011;46879;45.658;11.814;2022-10-28T08:28:21;6.95;;;2.75;;
60999;SDS011;46879;45.658;11.814;2022-10-28T08:33:21;5.90;;;2.40;;
60999;SDS011;46879;45.658;11.814;2022-10-28T08:38:22;3.65;;;2.50;;
60999;SDS011;46879;45.658;11.814;2022-10-28T08:48:34;4.45;;;2.00;;
60999;SDS011;46879;45.658;11.814;2022-10-28T08:53:51;3.45;;;2.13;;
60999;SDS011;46879;45.658;11.814;2022-10-28T08:58:52;3.08;;;2.30;;
60999;SDS011;46879;45.658;11.814;2022-10-28T09:03:55;6.68;;;2.40;;
60999;SDS011;46879;45.658;11.814;2022-10-28T09:08:57;8.70;;;2.58;;
60999;SDS011;46879;45.658;11.814;2022-10-28T09:19:51;6.47;;;2.50;;
60999;SDS011;46879;45.658;11.814;2022-10-28T09:24:34;6.07;;;2.97;;
60999;SDS011;46879;45.658;11.814;2022-10-28T09:29:45;4.40;;;2.30;;
60999;SDS011;46879;45.658;11.814;2022-10-28T09:34:58;3.15;;;2.35;;
60999;SDS011;46879;45.658;11.814;2022-10-28T09:40:03;6.20;;;2.60;;
60999;SDS011;46879;45.658;11.814;2022-10-28T09:45:05;4.50;;;2.55;;
60999;SDS011;46879;45.658;11.814;2022-10-28T09:50:14;3.28;;;2.50;;
60999;SDS011;46879;45.658;11.814;2022-10-28T09:55:19;8.75;;;2.20;;
60999;SDS011;46879;45.658;11.814;2022-10-28T10:00:20;4.55;;;2.50;;
60999;SDS011;46879;45.658;11.814;2022-10-28T10:05:20;9.35;;;2.50;;
60999;SDS011;46879;45.658;11.814;2022-10-28T10:10:21;8.70;;;2.50;;
60999;SDS011;46879;45.658;11.814;2022-10-28T10:15:26;5.00;;;2.47;;
60999;SDS011;46879;45.658;11.814;2022-10-28T10:20:27;5.35;;;2.22;;
60999;SDS011;46879;45.658;11.814;2022-10-28T10:25:27;6.83;;;2.83;;
60999;SDS011;46879;45.658;11.814;2022-10-28T10:30:32;3.92;;;2.22;;
60999;SDS011;46879;45.658;11.814;2022-10-28T10:35:34;6.53;;;2.85;;
60999;SDS011;46879;45.658;11.814;2022-10-28T10:40:37;4.78;;;2.30;;
60999;SDS011;46879;45.658;11.814;2022-10-28T10:45:58;5.20;;;2.58;;
60999;SDS011;46879;45.658;11.814;2022-10-28T10:56:50;3.50;;;2.00;;
60999;SDS011;46879;45.658;11.814;2022-10-28T11:01:43;7.65;;;2.40;;
60999;SDS011;46879;45.658;11.814;2022-10-28T11:06:43;5.17;;;2.13;;
60999;SDS011;46879;45.658;11.814;2022-10-28T11:11:48;4.38;;;2.60;;
60999;SDS011;46879;45.658;11.814;2022-10-28T11:16:52;4.27;;;2.10;;
60999;SDS011;46879;45.658;11.814;2022-10-28T11:42:40;5.07;;;2.20;;
60999;SDS011;46879;45.658;11.814;2022-10-28T11:58:18;5.05;;;3.08;;
60999;SDS011;46879;45.658;11.814;2022-10-28T12:08:48;3.92;;;2.75;;
60999;SDS011;46879;45.658;11.814;2022-10-28T12:14:13;7.72;;;2.85;;
60999;SDS011;46879;45.658;11.814;2022-10-28T12:19:26;5.47;;;2.95;;
60999;SDS011;46879;45.658;11.814;2022-10-28T12:24:27;5.38;;;3.15;;
60999;SDS011;46879;45.658;11.814;2022-10-28T12:29:32;8.80;;;2.72;;
60999;SDS011;46879;45.658;11.814;2022-10-28T12:35:23;5.57;;;2.92;;
60999;SDS011;46879;45.658;11.814;2022-10-28T12:40:02;7.45;;;3.20;;
60999;SDS011;46879;45.658;11.814;2022-10-28T12:45:07;4.10;;;2.50;;
60999;SDS011;46879;45.658;11.814;2022-10-28T12:50:26;6.82;;;2.75;;
60999;SDS011;46879;45.658;11.814;2022-10-28T12:55:36;3.40;;;2.40;;
60999;SDS011;46879;45.658;11.814;2022-10-28T13:00:39;3.17;;;2.15;;
60999;SDS011;46879;45.658;11.814;2022-10-28T13:10:49;10.60;;;2.90;;
60999;SDS011;46879;45.658;11.814;2022-10-28T13:31:38;7.85;;;2.55;;
60999;SDS011;46879;45.658;11.814;2022-10-28T13:36:40;14.80;;;3.58;;
60999;SDS011;46879;45.658;11.814;2022-10-28T13:41:41;16.45;;;3.83;;
60999;SDS011;46879;45.658;11.814;2022-10-28T13:52:01;11.55;;;2.90;;
60999;SDS011;46879;45.658;11.814;2022-10-28T13:57:03;5.45;;;2.75;;
60999;SDS011;46879;45.658;11.814;2022-10-28T14:02:20;4.70;;;3.03;;
60999;SDS011;46879;45.658;11.814;2022-10-28T14:07:22;9.00;;;2.72;;
60999;SDS011;46879;45.658;11.814;2022-10-28T14:12:26;3.88;;;2.85;;
60999;SDS011;46879;45.658;11.814;2022-10-28T14:17:40;9.05;;;2.97;;
60999;SDS011;46879;45.658;11.814;2022-10-28T14:22:40;12.20;;;3.55;;
60999;SDS011;46879;45.658;11.814;2022-10-28T14:27:42;6.88;;;2.95;;
60999;SDS011;46879;45.658;11.814;2022-10-28T14:32:43;15.90;;;4.10;;
60999;SDS011;46879;45.658;11.814;2022-10-28T14:53:29;14.52;;;4.00;;
60999;SDS011;46879;45.658;11.814;2022-10-28T14:58:30;8.75;;;4.28;;
60999;SDS011;46879;45.658;11.814;2022-10-28T15:03:34;10.27;;;4.40;;
60999;SDS011;46879;45.658;11.814;2022-10-28T15:08:34;8.40;;;3.97;;
60999;SDS011;46879;45.658;11.814;2022-10-28T15:13:34;13.40;;;3.95;;
60999;SDS011;46879;45.658;11.814;2022-10-28T15:18:35;8.97;;;4.13;;
60999;SDS011;46879;45.658;11.814;2022-10-28T15:23:35;13.07;;;3.80;;
60999;SDS011;46879;45.658;11.814;2022-10-28T15:28:35;8.57;;;3.85;;
60999;SDS011;46879;45.658;11.814;2022-10-28T15:33:39;11.93;;;3.97;;
60999;SDS011;46879;45.658;11.814;2022-10-28T15:38:44;21.20;;;3.63;;
60999;SDS011;46879;45.658;11.814;2022-10-28T15:43:45;8.75;;;3.63;;
60999;SDS011;46879;45.658;11.814;2022-10-28T15:48:52;8.57;;;3.42;;
60999;SDS011;46879;45.658;11.814;2022-10-28T15:53:53;8.73;;;3.45;;
60999;SDS011;46879;45.658;11.814;2022-10-28T16:03:57;9.85;;;3.33;;
60999;SDS011;46879;45.658;11.814;2022-10-28T16:09:19;7.47;;;3.17;;
60999;SDS011;46879;45.658;11.814;2022-10-28T16:19:26;11.70;;;3.25;;
60999;SDS011;46879;45.658;11.814;2022-10-28T16:24:26;9.77;;;3.22;;
60999;SDS011;46879;45.658;11.814;2022-10-28T16:29:27;7.75;;;3.20;;
60999;SDS011;46879;45.658;11.814;2022-10-28T16:34:27;15.57;;;3.70;;
60999;SDS011;46879;45.658;11.814;2022-10-28T16:39:27;7.68;;;3.40;;
60999;SDS011;46879;45.658;11.814;2022-10-28T16:44:27;9.30;;;3.83;;
60999;SDS011;46879;45.658;11.814;2022-10-28T16:49:28;5.90;;;3.15;;
60999;SDS011;46879;45.658;11.814;2022-10-28T16:54:28;9.00;;;3.35;;
60999;SDS011;46879;45.658;11.814;2022-10-28T16:59:28;9.05;;;3.15;;
60999;SDS011;46879;45.658;11.814;2022-10-28T17:04:28;3.30;;;2.63;;
60999;SDS011;46879;45.658;11.814;2022-10-28T17:09:29;5.63;;;3.03;;
60999;SDS011;46879;45.658;11.814;2022-10-28T17:14:30;6.72;;;2.70;;
60999;SDS011;46879;45.658;11.814;2022-10-28T17:19:30;4.45;;;2.72;;
60999;SDS011;46879;45.658;11.814;2022-10-28T17:24:30;5.20;;;2.95;;
60999;SDS011;46879;45.658;11.814;2022-10-28T17:29:30;8.52;;;3.38;;
60999;SDS011;46879;45.658;11.814;2022-10-28T17:34:31;5.15;;;3.20;;
60999;SDS011;46879;45.658;11.814;2022-10-28T17:39:31;6.00;;;3.00;;
60999;SDS011;46879;45.658;11.814;2022-10-28T17:44:31;8.73;;;2.90;;
60999;SDS011;46879;45.658;11.814;2022-10-28T17:49:32;4.18;;;2.50;;
60999;SDS011;46879;45.658;11.814;2022-10-28T17:54:35;5.20;;;3.03;;
60999;SDS011;46879;45.658;11.814;2022-10-28T17:59:35;9.57;;;2.97;;
60999;SDS011;46879;45.658;11.814;2022-10-28T18:04:36;6.97;;;3.10;;
60999;SDS011;46879;45.658;11.814;2022-10-28T18:09:36;7.05;;;3.20;;
60999;SDS011;46879;45.658;11.814;2022-10-28T18:14:37;5.43;;;3.25;;
60999;SDS011;46879;45.658;11.814;2022-10-28T18:19:37;11.82;;;3.83;;
60999;SDS011;46879;45.658;11.814;2022-10-28T18:24:38;8.37;;;3.43;;
60999;SDS011;46879;45.658;11.814;2022-10-28T18:29:38;8.87;;;3.60;;
60999;SDS011;46879;45.658;11.814;2022-10-28T18:34:38;7.80;;;3.78;;
60999;SDS011;46879;45.658;11.814;2022-10-28T18:39:38;9.20;;;3.65;;
60999;SDS011;46879;45.658;11.814;2022-10-28T18:44:39;5.43;;;3.10;;
60999;SDS011;46879;45.658;11.814;2022-10-28T18:49:40;9.23;;;2.88;;
60999;SDS011;46879;45.658;11.814;2022-10-28T18:54:40;6.80;;;3.30;;
60999;SDS011;46879;45.658;11.814;2022-10-28T18:59:41;7.88;;;3.22;;
60999;SDS011;46879;45.658;11.814;2022-10-28T19:04:41;6.80;;;3.40;;
60999;SDS011;46879;45.658;11.814;2022-10-28T19:09:41;5.45;;;3.20;;
60999;SDS011;46879;45.658;11.814;2022-10-28T19:14:41;8.48;;;3.38;;
60999;SDS011;46879;45.658;11.814;2022-10-28T19:19:42;7.55;;;3.30;;
60999;SDS011;46879;45.658;11.814;2022-10-28T19:24:42;13.43;;;4.00;;
60999;SDS011;46879;45.658;11.814;2022-10-28T19:29:42;22.80;;;3.73;;
60999;SDS011;46879;45.658;11.814;2022-10-28T19:34:43;10.97;;;3.30;;
60999;SDS011;46879;45.658;11.814;2022-10-28T19:39:43;20.42;;;3.75;;
60999;SDS011;46879;45.658;11.814;2022-10-28T19:44:43;8.25;;;3.45;;
60999;SDS011;46879;45.658;11.814;2022-10-28T19:49:44;12.18;;;3.55;;
60999;SDS011;46879;45.658;11.814;2022-10-28T19:54:44;20.33;;;3.50;;
60999;SDS011;46879;45.658;11.814;2022-10-28T19:59:44;28.35;;;3.65;;
60999;SDS011;46879;45.658;11.814;2022-10-28T20:04:44;5.15;;;2.92;;
60999;SDS011;46879;45.658;11.814;2022-10-28T20:09:47;12.65;;;3.08;;
60999;SDS011;46879;45.658;11.814;2022-10-28T20:14:48;5.97;;;3.47;;
60999;SDS011;46879;45.658;11.814;2022-10-28T20:19:48;6.60;;;3.35;;
60999;SDS011;46879;45.658;11.814;2022-10-28T20:24:48;8.23;;;3.38;;
60999;SDS011;46879;45.658;11.814;2022-10-28T20:29:49;8.60;;;2.92;;
60999;SDS011;46879;45.658;11.814;2022-10-28T20:34:49;10.93;;;3.30;;
60999;SDS011;46879;45.658;11.814;2022-10-28T20:39:50;7.35;;;3.20;;
60999;SDS011;46879;45.658;11.814;2022-10-28T20:44:50;7.40;;;2.58;;
60999;SDS011;46879;45.658;11.814;2022-10-28T20:49:50;7.32;;;3.03;;
60999;SDS011;46879;45.658;11.814;2022-10-28T20:54:52;8.15;;;3.13;;
60999;SDS011;46879;45.658;11.814;2022-10-28T20:59:53;6.20;;;3.30;;
60999;SDS011;46879;45.658;11.814;2022-10-28T21:04:53;7.32;;;2.90;;
60999;SDS011;46879;45.658;11.814;2022-10-28T21:09:53;4.13;;;2.45;;
60999;SDS011;46879;45.658;11.814;2022-10-28T21:14:54;9.03;;;3.10;;
60999;SDS011;46879;45.658;11.814;2022-10-28T21:19:54;5.68;;;2.38;;
60999;SDS011;46879;45.658;11.814;2022-10-28T21:24:54;8.80;;;3.08;;
60999;SDS011;46879;45.658;11.814;2022-10-28T21:29:55;9.67;;;3.93;;
60999;SDS011;46879;45.658;11.814;2022-10-28T21:34:58;7.65;;;2.72;;
60999;SDS011;46879;45.658;11.814;2022-10-28T21:39:58;6.13;;;3.13;;
60999;SDS011;46879;45.658;11.814;2022-10-28T21:44:59;4.47;;;2.80;;
60999;SDS011;46879;45.658;11.814;2022-10-28T21:49:59;16.50;;;3.20;;
60999;SDS011;46879;45.658;11.814;2022-10-28T21:54:59;10.70;;;2.85;;
60999;SDS011;46879;45.658;11.814;2022-10-28T21:59:59;6.95;;;3.78;;
60999;SDS011;46879;45.658;11.814;2022-10-28T22:05:00;11.68;;;3.03;;
60999;SDS011;46879;45.658;11.814;2022-10-28T22:10:00;10.30;;;3.35;;
60999;SDS011;46879;45.658;11.814;2022-10-28T22:15:00;13.07;;;2.67;;
60999;SDS011;46879;45.658;11.814;2022-10-28T22:20:01;6.07;;;3.03;;
60999;SDS011;46879;45.658;11.814;2022-10-28T22:25:01;9.77;;;2.97;;
60999;SDS011;46879;45.658;11.814;2022-10-28T22:30:02;15.18;;;3.50;;
60999;SDS011;46879;45.658;11.814;2022-10-28T22:35:02;8.88;;;3.08;;
60999;SDS011;46879;45.658;11.814;2022-10-28T22:40:02;7.07;;;2.80;;
60999;SDS011;46879;45.658;11.814;2022-10-28T22:45:03;7.53;;;3.23;;
60999;SDS011;46879;45.658;11.814;2022-10-28T22:50:03;7.43;;;3.10;;
60999;SDS011;46879;45.658;11.814;2022-10-28T22:55:04;7.82;;;2.63;;
60999;SDS011;46879;45.658;11.814;2022-10-28T23:00:04;6.07;;;2.90;;
60999;SDS011;46879;45.658;11.814;2022-10-28T23:05:05;9.52;;;2.83;;
60999;SDS011;46879;45.658;11.814;2022-10-28T23:10:06;3.83;;;2.65;;
60999;SDS011;46879;45.658;11.814;2022-10-28T23:15:06;13.13;;;3.15;;
60999;SDS011;46879;45.658;11.814;2022-10-28T23:20:07;4.70;;;2.47;;
60999;SDS011;46879;45.658;11.814;2022-10-28T23:25:07;4.15;;;2.50;;
60999;SDS011;46879;45.658;11.814;2022-10-28T23:30:11;4.20;;;2.37;;
60999;SDS011;46879;45.658;11.814;2022-10-28T23:35:11;7.93;;;2.67;;
60999;SDS011;46879;45.658;11.814;2022-10-28T23:40:12;4.60;;;2.50;;
60999;SDS011;46879;45.658;11.814;2022-10-28T23:45:12;5.35;;;3.08;;
60999;SDS011;46879;45.658;11.814;2022-10-28T23:50:12;5.63;;;2.78;;
60999;SDS011;46879;45.658;11.814;2022-10-28T23:55:13;9.43;;;2.60;;
